Mission, Canada
Current Conditions -  °F | °C
As of 7:00 AM on Friday 28 Nov 2014 (Local Time) from CYXX Reporting Station
Overcast Overcast  
Wind Chill: 37°   Ceiling: 2500
Heat Index: 43°   Visibility: 7mi
Dew Point: 43°   Wind: 9mph
Humidity: 100%   Direction: 180°S
Pressure: 29.52"   Gusts: NA
Location:  49.13°N, 122.3°W
Report Text: CYXX 281500Z 18008KT 7SM FEW010 SCT015 OVC025 06/06 A2952 RMK SF1SC2SC5 SLP998
Loading
Personal Weather Stations






























Interactive Weather Map New forecast layout! Learn more

10-Day Weather Forecast

Advertisements
Track Severe Weather on mobile